sensor_id;sensor_type;location;lat;lon;timestamp;temperature;humidity
19180;DHT22;9722;48.754;8.868;2023-11-19T00:01:53;8.40;99.90
19180;DHT22;9722;48.754;8.868;2023-11-19T00:05:14;8.60;99.90
19180;DHT22;9722;48.754;8.868;2023-11-19T00:08:35;8.80;99.90
19180;DHT22;9722;48.754;8.868;2023-11-19T00:11:55;8.90;99.90
19180;DHT22;9722;48.754;8.868;2023-11-19T00:15:16;9.00;99.90
19180;DHT22;9722;48.754;8.868;2023-11-19T00:18:38;9.10;99.90
19180;DHT22;9722;48.754;8.868;2023-11-19T00:21:58;9.20;99.90
19180;DHT22;9722;48.754;8.868;2023-11-19T00:25:22;9.20;99.90
19180;DHT22;9722;48.754;8.868;2023-11-19T00:28:43;9.30;99.90
19180;DHT22;9722;48.754;8.868;2023-11-19T00:32:04;9.30;99.90
19180;DHT22;9722;48.754;8.868;2023-11-19T00:35:25;9.30;99.90
19180;DHT22;9722;48.754;8.868;2023-11-19T00:38:46;9.40;99.90
19180;DHT22;9722;48.754;8.868;2023-11-19T00:42:07;9.40;99.90
19180;DHT22;9722;48.754;8.868;2023-11-19T00:45:27;9.40;99.90
19180;DHT22;9722;48.754;8.868;2023-11-19T00:48:48;9.40;99.90
19180;DHT22;9722;48.754;8.868;2023-11-19T00:52:09;9.40;99.90
19180;DHT22;9722;48.754;8.868;2023-11-19T00:55:29;9.40;99.90
19180;DHT22;9722;48.754;8.868;2023-11-19T00:58:50;9.40;99.90
19180;DHT22;9722;48.754;8.868;2023-11-19T01:02:10;9.40;99.90
19180;DHT22;9722;48.754;8.868;2023-11-19T01:05:31;9.40;99.90
19180;DHT22;9722;48.754;8.868;2023-11-19T01:08:52;9.50;99.90
19180;DHT22;9722;48.754;8.868;2023-11-19T01:12:13;9.50;99.90
19180;DHT22;9722;48.754;8.868;2023-11-19T01:15:34;9.50;99.90
19180;DHT22;9722;48.754;8.868;2023-11-19T01:18:54;9.60;99.90
19180;DHT22;9722;48.754;8.868;2023-11-19T01:22:15;9.60;99.90
19180;DHT22;9722;48.754;8.868;2023-11-19T01:25:35;9.60;99.90
19180;DHT22;9722;48.754;8.868;2023-11-19T01:28:56;9.60;99.90
19180;DHT22;9722;48.754;8.868;2023-11-19T01:32:16;9.60;99.90
19180;DHT22;9722;48.754;8.868;2023-11-19T01:35:37;9.70;99.90
19180;DHT22;9722;48.754;8.868;2023-11-19T01:38:57;9.70;99.90
19180;DHT22;9722;48.754;8.868;2023-11-19T01:42:18;9.70;99.90
19180;DHT22;9722;48.754;8.868;2023-11-19T01:45:39;9.80;99.90
19180;DHT22;9722;48.754;8.868;2023-11-19T01:49:00;9.80;99.90
19180;DHT22;9722;48.754;8.868;2023-11-19T01:52:22;9.80;99.90
19180;DHT22;9722;48.754;8.868;2023-11-19T01:55:43;9.80;99.90
19180;DHT22;9722;48.754;8.868;2023-11-19T01:59:04;9.90;99.90
19180;DHT22;9722;48.754;8.868;2023-11-19T02:02:25;9.90;99.90
19180;DHT22;9722;48.754;8.868;2023-11-19T02:05:48;9.90;99.90
19180;DHT22;9722;48.754;8.868;2023-11-19T02:09:09;10.00;99.90
19180;DHT22;9722;48.754;8.868;2023-11-19T02:12:30;10.00;99.90
19180;DHT22;9722;48.754;8.868;2023-11-19T02:15:54;10.00;99.90
19180;DHT22;9722;48.754;8.868;2023-11-19T02:19:15;10.00;99.90
19180;DHT22;9722;48.754;8.868;2023-11-19T02:22:35;10.00;99.90
19180;DHT22;9722;48.754;8.868;2023-11-19T02:26:21;10.10;99.90
19180;DHT22;9722;48.754;8.868;2023-11-19T02:29:45;10.10;99.90
19180;DHT22;9722;48.754;8.868;2023-11-19T02:33:06;10.20;99.90
19180;DHT22;9722;48.754;8.868;2023-11-19T02:36:26;10.20;99.90
19180;DHT22;9722;48.754;8.868;2023-11-19T02:39:47;10.30;99.90
19180;DHT22;9722;48.754;8.868;2023-11-19T02:43:07;10.30;99.90
19180;DHT22;9722;48.754;8.868;2023-11-19T02:46:28;10.30;99.90
19180;DHT22;9722;48.754;8.868;2023-11-19T02:49:49;10.30;99.90
19180;DHT22;9722;48.754;8.868;2023-11-19T02:53:10;10.40;99.90
19180;DHT22;9722;48.754;8.868;2023-11-19T02:56:30;10.40;99.90
19180;DHT22;9722;48.754;8.868;2023-11-19T02:59:55;10.40;99.90
19180;DHT22;9722;48.754;8.868;2023-11-19T03:03:16;10.50;99.90
19180;DHT22;9722;48.754;8.868;2023-11-19T03:06:46;10.40;99.90
19180;DHT22;9722;48.754;8.868;2023-11-19T03:10:07;10.50;99.90
19180;DHT22;9722;48.754;8.868;2023-11-19T03:13:29;10.50;99.90
19180;DHT22;9722;48.754;8.868;2023-11-19T03:16:49;10.60;99.90
19180;DHT22;9722;48.754;8.868;2023-11-19T03:20:11;10.60;99.90
19180;DHT22;9722;48.754;8.868;2023-11-19T03:23:35;10.50;99.90
19180;DHT22;9722;48.754;8.868;2023-11-19T03:26:56;10.60;99.90
19180;DHT22;9722;48.754;8.868;2023-11-19T03:30:17;10.60;99.90
19180;DHT22;9722;48.754;8.868;2023-11-19T03:33:38;10.50;99.90
19180;DHT22;9722;48.754;8.868;2023-11-19T03:36:58;10.60;99.90
19180;DHT22;9722;48.754;8.868;2023-11-19T03:40:19;10.60;99.90
19180;DHT22;9722;48.754;8.868;2023-11-19T03:43:40;10.60;99.90
19180;DHT22;9722;48.754;8.868;2023-11-19T03:47:00;10.60;99.90
19180;DHT22;9722;48.754;8.868;2023-11-19T03:50:21;10.60;99.90
19180;DHT22;9722;48.754;8.868;2023-11-19T03:53:43;10.60;99.90
19180;DHT22;9722;48.754;8.868;2023-11-19T03:57:04;10.60;99.90
19180;DHT22;9722;48.754;8.868;2023-11-19T04:00:24;10.60;99.90
19180;DHT22;9722;48.754;8.868;2023-11-19T04:03:45;10.60;99.90
19180;DHT22;9722;48.754;8.868;2023-11-19T04:07:05;10.60;99.90
19180;DHT22;9722;48.754;8.868;2023-11-19T04:10:26;10.70;99.90
19180;DHT22;9722;48.754;8.868;2023-11-19T04:13:47;10.70;99.90
19180;DHT22;9722;48.754;8.868;2023-11-19T04:17:08;10.70;99.90
19180;DHT22;9722;48.754;8.868;2023-11-19T04:20:28;10.80;99.90
19180;DHT22;9722;48.754;8.868;2023-11-19T04:23:49;10.80;99.90
19180;DHT22;9722;48.754;8.868;2023-11-19T04:27:10;10.90;99.90
19180;DHT22;9722;48.754;8.868;2023-11-19T04:30:30;10.90;99.90
19180;DHT22;9722;48.754;8.868;2023-11-19T04:33:52;10.90;99.90
19180;DHT22;9722;48.754;8.868;2023-11-19T04:37:15;11.00;99.90
19180;DHT22;9722;48.754;8.868;2023-11-19T04:40:35;11.00;99.90
19180;DHT22;9722;48.754;8.868;2023-11-19T04:43:56;11.00;99.90
19180;DHT22;9722;48.754;8.868;2023-11-19T04:47:16;11.00;99.90
19180;DHT22;9722;48.754;8.868;2023-11-19T04:50:37;11.10;99.90
19180;DHT22;9722;48.754;8.868;2023-11-19T04:53:57;11.10;99.90
19180;DHT22;9722;48.754;8.868;2023-11-19T04:57:18;11.10;99.90
19180;DHT22;9722;48.754;8.868;2023-11-19T05:00:38;11.20;99.90
19180;DHT22;9722;48.754;8.868;2023-11-19T05:03:59;11.20;99.90
19180;DHT22;9722;48.754;8.868;2023-11-19T05:07:19;11.20;99.90
19180;DHT22;9722;48.754;8.868;2023-11-19T05:10:40;11.20;99.90
19180;DHT22;9722;48.754;8.868;2023-11-19T05:14:05;11.20;99.90
19180;DHT22;9722;48.754;8.868;2023-11-19T05:17:26;11.30;99.90
19180;DHT22;9722;48.754;8.868;2023-11-19T05:20:46;11.30;99.90
19180;DHT22;9722;48.754;8.868;2023-11-19T05:24:07;11.30;99.90
19180;DHT22;9722;48.754;8.868;2023-11-19T05:27:27;11.40;99.90
19180;DHT22;9722;48.754;8.868;2023-11-19T05:30:48;11.40;99.90
19180;DHT22;9722;48.754;8.868;2023-11-19T05:34:09;11.40;99.90
19180;DHT22;9722;48.754;8.868;2023-11-19T05:37:29;11.40;99.90
19180;DHT22;9722;48.754;8.868;2023-11-19T05:40:50;11.50;99.90
19180;DHT22;9722;48.754;8.868;2023-11-19T05:44:10;11.50;99.90
19180;DHT22;9722;48.754;8.868;2023-11-19T05:47:31;11.50;99.90
19180;DHT22;9722;48.754;8.868;2023-11-19T05:50:51;11.50;99.90
19180;DHT22;9722;48.754;8.868;2023-11-19T05:54:12;11.50;99.90
19180;DHT22;9722;48.754;8.868;2023-11-19T05:57:33;11.50;99.90
19180;DHT22;9722;48.754;8.868;2023-11-19T06:00:58;11.50;99.90
19180;DHT22;9722;48.754;8.868;2023-11-19T06:04:21;11.50;99.90
19180;DHT22;9722;48.754;8.868;2023-11-19T06:07:41;11.50;99.90
19180;DHT22;9722;48.754;8.868;2023-11-19T06:11:02;11.50;99.90
19180;DHT22;9722;48.754;8.868;2023-11-19T06:14:22;11.60;99.90
19180;DHT22;9722;48.754;8.868;2023-11-19T06:17:44;11.60;99.90
19180;DHT22;9722;48.754;8.868;2023-11-19T06:21:05;11.60;99.90
19180;DHT22;9722;48.754;8.868;2023-11-19T06:24:26;11.60;99.90
19180;DHT22;9722;48.754;8.868;2023-11-19T06:27:46;11.60;99.90
19180;DHT22;9722;48.754;8.868;2023-11-19T06:31:07;11.60;99.90
19180;DHT22;9722;48.754;8.868;2023-11-19T06:34:27;11.60;99.90
19180;DHT22;9722;48.754;8.868;2023-11-19T06:37:48;11.60;99.90
19180;DHT22;9722;48.754;8.868;2023-11-19T06:41:09;11.70;99.90
19180;DHT22;9722;48.754;8.868;2023-11-19T06:44:32;11.70;99.90
19180;DHT22;9722;48.754;8.868;2023-11-19T06:47:53;11.60;99.90
19180;DHT22;9722;48.754;8.868;2023-11-19T06:51:13;11.70;99.90
19180;DHT22;9722;48.754;8.868;2023-11-19T06:54:34;11.70;99.90
19180;DHT22;9722;48.754;8.868;2023-11-19T06:57:54;11.70;99.90
19180;DHT22;9722;48.754;8.868;2023-11-19T07:01:16;11.60;99.90
19180;DHT22;9722;48.754;8.868;2023-11-19T07:04:36;11.60;99.90
19180;DHT22;9722;48.754;8.868;2023-11-19T07:07:57;11.60;99.90
19180;DHT22;9722;48.754;8.868;2023-11-19T07:11:17;11.50;99.90
19180;DHT22;9722;48.754;8.868;2023-11-19T07:14:38;11.60;99.90
19180;DHT22;9722;48.754;8.868;2023-11-19T07:17:58;11.60;99.90
19180;DHT22;9722;48.754;8.868;2023-11-19T07:21:19;11.60;99.90
19180;DHT22;9722;48.754;8.868;2023-11-19T07:24:40;11.70;99.90
19180;DHT22;9722;48.754;8.868;2023-11-19T07:28:01;11.70;99.90
19180;DHT22;9722;48.754;8.868;2023-11-19T07:31:24;11.70;99.90
19180;DHT22;9722;48.754;8.868;2023-11-19T07:34:45;11.80;99.90
19180;DHT22;9722;48.754;8.868;2023-11-19T07:38:05;11.80;99.90
19180;DHT22;9722;48.754;8.868;2023-11-19T07:41:26;11.80;99.90
19180;DHT22;9722;48.754;8.868;2023-11-19T07:44:46;11.90;99.90
19180;DHT22;9722;48.754;8.868;2023-11-19T07:48:07;11.90;99.90
19180;DHT22;9722;48.754;8.868;2023-11-19T07:51:27;12.00;99.90
19180;DHT22;9722;48.754;8.868;2023-11-19T07:54:48;12.10;99.90
19180;DHT22;9722;48.754;8.868;2023-11-19T07:58:09;12.20;99.90
19180;DHT22;9722;48.754;8.868;2023-11-19T08:01:30;12.40;99.90
19180;DHT22;9722;48.754;8.868;2023-11-19T08:04:50;12.40;99.90
19180;DHT22;9722;48.754;8.868;2023-11-19T08:08:12;12.50;99.90
19180;DHT22;9722;48.754;8.868;2023-11-19T08:11:33;12.50;99.90
19180;DHT22;9722;48.754;8.868;2023-11-19T08:14:53;12.60;99.90
19180;DHT22;9722;48.754;8.868;2023-11-19T08:18:14;12.70;99.90
19180;DHT22;9722;48.754;8.868;2023-11-19T08:21:34;12.80;99.90
19180;DHT22;9722;48.754;8.868;2023-11-19T08:24:55;13.10;99.90
19180;DHT22;9722;48.754;8.868;2023-11-19T08:28:15;13.60;99.90
19180;DHT22;9722;48.754;8.868;2023-11-19T08:31:36;14.60;99.90
19180;DHT22;9722;48.754;8.868;2023-11-19T08:34:56;15.00;99.90
19180;DHT22;9722;48.754;8.868;2023-11-19T08:38:17;15.00;99.90
19180;DHT22;9722;48.754;8.868;2023-11-19T08:41:37;14.90;99.90
19180;DHT22;9722;48.754;8.868;2023-11-19T08:44:59;14.70;99.90
19180;DHT22;9722;48.754;8.868;2023-11-19T08:48:20;14.80;99.90
19180;DHT22;9722;48.754;8.868;2023-11-19T08:51:40;15.10;99.90
19180;DHT22;9722;48.754;8.868;2023-11-19T08:55:01;15.20;99.90
19180;DHT22;9722;48.754;8.868;2023-11-19T08:58:23;15.40;99.90
19180;DHT22;9722;48.754;8.868;2023-11-19T09:01:43;15.50;99.90
19180;DHT22;9722;48.754;8.868;2023-11-19T09:05:04;15.40;99.90
19180;DHT22;9722;48.754;8.868;2023-11-19T09:08:25;15.20;99.90
19180;DHT22;9722;48.754;8.868;2023-11-19T09:11:46;15.10;99.90
19180;DHT22;9722;48.754;8.868;2023-11-19T09:15:06;15.10;99.90
19180;DHT22;9722;48.754;8.868;2023-11-19T09:18:27;15.00;99.90
19180;DHT22;9722;48.754;8.868;2023-11-19T09:21:47;15.00;99.90
19180;DHT22;9722;48.754;8.868;2023-11-19T09:25:09;15.00;99.90
19180;DHT22;9722;48.754;8.868;2023-11-19T09:28:30;15.00;99.90
19180;DHT22;9722;48.754;8.868;2023-11-19T09:31:50;15.00;99.90
19180;DHT22;9722;48.754;8.868;2023-11-19T09:35:11;15.40;99.90
19180;DHT22;9722;48.754;8.868;2023-11-19T09:38:33;16.20;99.90
19180;DHT22;9722;48.754;8.868;2023-11-19T09:41:54;16.70;99.90
19180;DHT22;9722;48.754;8.868;2023-11-19T09:45:16;17.80;99.90
19180;DHT22;9722;48.754;8.868;2023-11-19T09:48:38;18.90;99.50
19180;DHT22;9722;48.754;8.868;2023-11-19T09:51:58;19.20;97.30
19180;DHT22;9722;48.754;8.868;2023-11-19T09:55:19;19.10;95.60
19180;DHT22;9722;48.754;8.868;2023-11-19T09:58:40;18.70;95.60
19180;DHT22;9722;48.754;8.868;2023-11-19T10:02:02;18.30;95.50
19180;DHT22;9722;48.754;8.868;2023-11-19T10:05:23;18.40;96.00
19180;DHT22;9722;48.754;8.868;2023-11-19T10:08:44;19.30;94.00
19180;DHT22;9722;48.754;8.868;2023-11-19T10:12:05;19.50;92.00
19180;DHT22;9722;48.754;8.868;2023-11-19T10:15:25;19.60;91.10
19180;DHT22;9722;48.754;8.868;2023-11-19T10:18:48;19.50;91.00
19180;DHT22;9722;48.754;8.868;2023-11-19T10:22:11;19.40;90.30
19180;DHT22;9722;48.754;8.868;2023-11-19T10:25:32;20.20;89.30
19180;DHT22;9722;48.754;8.868;2023-11-19T10:28:55;21.60;83.10
19180;DHT22;9722;48.754;8.868;2023-11-19T10:32:16;22.90;77.30
19180;DHT22;9722;48.754;8.868;2023-11-19T10:35:54;23.70;73.40
19180;DHT22;9722;48.754;8.868;2023-11-19T10:39:14;24.40;66.60
19180;DHT22;9722;48.754;8.868;2023-11-19T10:42:35;24.50;66.70
19180;DHT22;9722;48.754;8.868;2023-11-19T10:46:09;25.10;62.40
19180;DHT22;9722;48.754;8.868;2023-11-19T10:49:30;25.80;61.60
19180;DHT22;9722;48.754;8.868;2023-11-19T10:52:55;26.50;58.30
19180;DHT22;9722;48.754;8.868;2023-11-19T10:56:17;26.90;57.10
19180;DHT22;9722;48.754;8.868;2023-11-19T10:59:41;27.30;55.30
19180;DHT22;9722;48.754;8.868;2023-11-19T11:03:09;27.40;53.50
19180;DHT22;9722;48.754;8.868;2023-11-19T11:06:30;27.20;53.60
19180;DHT22;9722;48.754;8.868;2023-11-19T11:09:54;27.50;53.20
19180;DHT22;9722;48.754;8.868;2023-11-19T11:13:14;27.40;51.70
19180;DHT22;9722;48.754;8.868;2023-11-19T11:16:37;27.20;52.20
19180;DHT22;9722;48.754;8.868;2023-11-19T11:20:00;27.40;51.50
19180;DHT22;9722;48.754;8.868;2023-11-19T11:26:58;25.70;52.60
19180;DHT22;9722;48.754;8.868;2023-11-19T11:34:31;26.80;52.80
19180;DHT22;9722;48.754;8.868;2023-11-19T11:38:04;27.20;51.50
19180;DHT22;9722;48.754;8.868;2023-11-19T11:41:27;27.40;50.40
19180;DHT22;9722;48.754;8.868;2023-11-19T11:45:01;27.90;49.70
19180;DHT22;9722;48.754;8.868;2023-11-19T11:48:25;28.60;48.80
19180;DHT22;9722;48.754;8.868;2023-11-19T11:55:11;29.80;45.90
19180;DHT22;9722;48.754;8.868;2023-11-19T11:58:32;30.10;45.90
19180;DHT22;9722;48.754;8.868;2023-11-19T12:01:58;30.70;44.70
19180;DHT22;9722;48.754;8.868;2023-11-19T12:05:19;31.20;43.60
19180;DHT22;9722;48.754;8.868;2023-11-19T12:08:40;31.10;42.90
19180;DHT22;9722;48.754;8.868;2023-11-19T12:12:27;29.50;43.00
19180;DHT22;9722;48.754;8.868;2023-11-19T12:19:16;28.40;44.80
19180;DHT22;9722;48.754;8.868;2023-11-19T12:22:39;28.80;44.90
19180;DHT22;9722;48.754;8.868;2023-11-19T12:26:00;28.80;44.10
19180;DHT22;9722;48.754;8.868;2023-11-19T12:29:21;29.20;43.60
19180;DHT22;9722;48.754;8.868;2023-11-19T12:32:44;29.70;42.70
19180;DHT22;9722;48.754;8.868;2023-11-19T12:36:05;29.70;42.30
19180;DHT22;9722;48.754;8.868;2023-11-19T12:39:32;29.70;42.70
19180;DHT22;9722;48.754;8.868;2023-11-19T12:42:53;29.90;41.70
19180;DHT22;9722;48.754;8.868;2023-11-19T12:46:20;30.10;42.00
19180;DHT22;9722;48.754;8.868;2023-11-19T12:49:41;30.50;41.50
19180;DHT22;9722;48.754;8.868;2023-11-19T12:53:01;30.80;40.20
19180;DHT22;9722;48.754;8.868;2023-11-19T12:56:22;30.80;39.70
19180;DHT22;9722;48.754;8.868;2023-11-19T12:59:43;30.50;39.20
19180;DHT22;9722;48.754;8.868;2023-11-19T13:03:03;30.30;39.40
19180;DHT22;9722;48.754;8.868;2023-11-19T13:06:24;30.30;39.80
19180;DHT22;9722;48.754;8.868;2023-11-19T13:09:44;30.30;39.40
19180;DHT22;9722;48.754;8.868;2023-11-19T13:13:06;30.30;39.40
19180;DHT22;9722;48.754;8.868;2023-11-19T13:16:28;30.20;39.40
19180;DHT22;9722;48.754;8.868;2023-11-19T13:19:49;30.30;39.00
19180;DHT22;9722;48.754;8.868;2023-11-19T13:23:11;30.30;39.10
19180;DHT22;9722;48.754;8.868;2023-11-19T13:26:31;30.50;39.00
19180;DHT22;9722;48.754;8.868;2023-11-19T13:29:52;30.80;39.00
19180;DHT22;9722;48.754;8.868;2023-11-19T13:33:12;31.10;38.80
19180;DHT22;9722;48.754;8.868;2023-11-19T13:36:33;31.40;38.20
19180;DHT22;9722;48.754;8.868;2023-11-19T13:39:54;30.80;36.60
19180;DHT22;9722;48.754;8.868;2023-11-19T13:43:15;30.40;37.40
19180;DHT22;9722;48.754;8.868;2023-11-19T13:46:35;30.00;37.40
19180;DHT22;9722;48.754;8.868;2023-11-19T13:49:56;29.30;38.10
19180;DHT22;9722;48.754;8.868;2023-11-19T13:53:16;28.80;38.90
19180;DHT22;9722;48.754;8.868;2023-11-19T13:56:37;28.60;39.00
19180;DHT22;9722;48.754;8.868;2023-11-19T13:59:57;28.50;38.90
19180;DHT22;9722;48.754;8.868;2023-11-19T14:03:18;28.00;39.20
19180;DHT22;9722;48.754;8.868;2023-11-19T14:06:38;27.60;40.10
19180;DHT22;9722;48.754;8.868;2023-11-19T14:09:59;27.30;40.80
19180;DHT22;9722;48.754;8.868;2023-11-19T14:13:20;27.30;41.00
19180;DHT22;9722;48.754;8.868;2023-11-19T14:16:40;27.00;41.20
19180;DHT22;9722;48.754;8.868;2023-11-19T14:20:01;26.70;41.70
19180;DHT22;9722;48.754;8.868;2023-11-19T14:23:22;26.50;42.60
19180;DHT22;9722;48.754;8.868;2023-11-19T14:26:46;26.40;42.70
19180;DHT22;9722;48.754;8.868;2023-11-19T14:30:09;25.60;42.50
19180;DHT22;9722;48.754;8.868;2023-11-19T14:33:31;23.90;44.40
19180;DHT22;9722;48.754;8.868;2023-11-19T14:36:52;22.30;46.40
19180;DHT22;9722;48.754;8.868;2023-11-19T14:40:14;20.90;48.50
19180;DHT22;9722;48.754;8.868;2023-11-19T14:43:34;19.70;50.50
19180;DHT22;9722;48.754;8.868;2023-11-19T14:46:55;18.60;51.70
19180;DHT22;9722;48.754;8.868;2023-11-19T14:50:15;17.80;53.10
19180;DHT22;9722;48.754;8.868;2023-11-19T14:53:36;17.20;54.40
19180;DHT22;9722;48.754;8.868;2023-11-19T14:56:57;16.60;55.50
19180;DHT22;9722;48.754;8.868;2023-11-19T15:00:19;16.20;56.20
19180;DHT22;9722;48.754;8.868;2023-11-19T15:03:40;15.80;57.10
19180;DHT22;9722;48.754;8.868;2023-11-19T15:07:01;15.50;57.80
19180;DHT22;9722;48.754;8.868;2023-11-19T15:10:21;15.20;58.60
19180;DHT22;9722;48.754;8.868;2023-11-19T15:13:42;14.80;59.30
19180;DHT22;9722;48.754;8.868;2023-11-19T15:17:02;14.60;60.30
19180;DHT22;9722;48.754;8.868;2023-11-19T15:20:23;14.40;60.80
19180;DHT22;9722;48.754;8.868;2023-11-19T15:23:43;14.20;61.80
19180;DHT22;9722;48.754;8.868;2023-11-19T15:27:04;14.00;62.60
19180;DHT22;9722;48.754;8.868;2023-11-19T15:30:25;13.80;63.30
19180;DHT22;9722;48.754;8.868;2023-11-19T15:33:46;13.70;64.10
19180;DHT22;9722;48.754;8.868;2023-11-19T15:37:08;13.50;64.90
19180;DHT22;9722;48.754;8.868;2023-11-19T15:40:28;13.30;65.70
19180;DHT22;9722;48.754;8.868;2023-11-19T15:43:49;13.10;66.20
19180;DHT22;9722;48.754;8.868;2023-11-19T15:47:09;13.00;67.30
19180;DHT22;9722;48.754;8.868;2023-11-19T15:50:30;12.90;68.00
19180;DHT22;9722;48.754;8.868;2023-11-19T15:53:51;12.80;68.60
19180;DHT22;9722;48.754;8.868;2023-11-19T15:57:11;12.60;69.30
19180;DHT22;9722;48.754;8.868;2023-11-19T16:00:32;12.50;69.60
19180;DHT22;9722;48.754;8.868;2023-11-19T16:03:52;12.30;70.30
19180;DHT22;9722;48.754;8.868;2023-11-19T16:07:17;12.20;70.80
19180;DHT22;9722;48.754;8.868;2023-11-19T16:10:37;12.10;71.80
19180;DHT22;9722;48.754;8.868;2023-11-19T16:14:03;12.10;72.50
19180;DHT22;9722;48.754;8.868;2023-11-19T16:17:23;12.00;73.00
19180;DHT22;9722;48.754;8.868;2023-11-19T16:20:44;12.00;73.60
19180;DHT22;9722;48.754;8.868;2023-11-19T16:24:05;11.90;73.90
19180;DHT22;9722;48.754;8.868;2023-11-19T16:27:27;11.90;74.80
19180;DHT22;9722;48.754;8.868;2023-11-19T16:30:48;11.90;75.60
19180;DHT22;9722;48.754;8.868;2023-11-19T16:34:09;11.80;76.20
19180;DHT22;9722;48.754;8.868;2023-11-19T16:37:29;11.80;76.90
19180;DHT22;9722;48.754;8.868;2023-11-19T16:40:49;11.70;77.70
19180;DHT22;9722;48.754;8.868;2023-11-19T16:44:11;11.60;78.20
19180;DHT22;9722;48.754;8.868;2023-11-19T16:47:32;11.60;79.40
19180;DHT22;9722;48.754;8.868;2023-11-19T16:50:53;11.60;80.50
19180;DHT22;9722;48.754;8.868;2023-11-19T16:54:13;11.60;81.10
19180;DHT22;9722;48.754;8.868;2023-11-19T16:57:34;11.60;81.90
19180;DHT22;9722;48.754;8.868;2023-11-19T17:00:56;11.50;82.20
19180;DHT22;9722;48.754;8.868;2023-11-19T17:04:18;11.40;82.90
19180;DHT22;9722;48.754;8.868;2023-11-19T17:07:38;11.30;83.40
19180;DHT22;9722;48.754;8.868;2023-11-19T17:11:00;11.30;84.20
19180;DHT22;9722;48.754;8.868;2023-11-19T17:14:21;11.10;84.80
19180;DHT22;9722;48.754;8.868;2023-11-19T17:17:41;11.10;85.70
19180;DHT22;9722;48.754;8.868;2023-11-19T17:21:02;11.00;86.40
19180;DHT22;9722;48.754;8.868;2023-11-19T17:24:22;11.00;87.00
19180;DHT22;9722;48.754;8.868;2023-11-19T17:27:43;11.00;87.70
19180;DHT22;9722;48.754;8.868;2023-11-19T17:31:05;11.00;88.20
19180;DHT22;9722;48.754;8.868;2023-11-19T17:34:26;10.90;88.30
19180;DHT22;9722;48.754;8.868;2023-11-19T17:37:46;10.90;88.70
19180;DHT22;9722;48.754;8.868;2023-11-19T17:41:07;10.90;88.80
19180;DHT22;9722;48.754;8.868;2023-11-19T17:44:28;10.90;88.90
19180;DHT22;9722;48.754;8.868;2023-11-19T17:47:49;11.00;88.90
19180;DHT22;9722;48.754;8.868;2023-11-19T17:51:09;11.00;88.80
19180;DHT22;9722;48.754;8.868;2023-11-19T17:54:30;11.10;88.70
19180;DHT22;9722;48.754;8.868;2023-11-19T17:57:50;11.10;88.20
19180;DHT22;9722;48.754;8.868;2023-11-19T18:01:11;11.20;87.80
19180;DHT22;9722;48.754;8.868;2023-11-19T18:04:31;11.20;87.60
19180;DHT22;9722;48.754;8.868;2023-11-19T18:07:52;11.30;87.70
19180;DHT22;9722;48.754;8.868;2023-11-19T18:11:12;11.30;87.80
19180;DHT22;9722;48.754;8.868;2023-11-19T18:14:37;11.30;88.00
19180;DHT22;9722;48.754;8.868;2023-11-19T18:17:58;11.30;88.30
19180;DHT22;9722;48.754;8.868;2023-11-19T18:21:18;11.30;88.40
19180;DHT22;9722;48.754;8.868;2023-11-19T18:24:39;11.20;89.00
19180;DHT22;9722;48.754;8.868;2023-11-19T18:27:59;11.20;89.20
19180;DHT22;9722;48.754;8.868;2023-11-19T18:31:21;11.10;89.40
19180;DHT22;9722;48.754;8.868;2023-11-19T18:34:41;11.00;89.90
19180;DHT22;9722;48.754;8.868;2023-11-19T18:38:02;11.10;90.30
19180;DHT22;9722;48.754;8.868;2023-11-19T18:41:23;11.10;90.60
19180;DHT22;9722;48.754;8.868;2023-11-19T18:44:44;11.10;91.00
19180;DHT22;9722;48.754;8.868;2023-11-19T18:48:04;11.30;91.20
19180;DHT22;9722;48.754;8.868;2023-11-19T18:51:26;11.40;91.00
19180;DHT22;9722;48.754;8.868;2023-11-19T18:54:47;11.50;90.90
19180;DHT22;9722;48.754;8.868;2023-11-19T18:58:08;11.50;91.00
19180;DHT22;9722;48.754;8.868;2023-11-19T19:01:29;11.50;91.00
19180;DHT22;9722;48.754;8.868;2023-11-19T19:04:52;11.50;91.20
19180;DHT22;9722;48.754;8.868;2023-11-19T19:08:12;11.50;91.10
19180;DHT22;9722;48.754;8.868;2023-11-19T19:11:33;11.50;91.10
19180;DHT22;9722;48.754;8.868;2023-11-19T19:14:53;11.60;91.10
19180;DHT22;9722;48.754;8.868;2023-11-19T19:18:16;11.50;91.00
19180;DHT22;9722;48.754;8.868;2023-11-19T19:21:37;11.50;91.10
19180;DHT22;9722;48.754;8.868;2023-11-19T19:24:58;11.50;91.20
19180;DHT22;9722;48.754;8.868;2023-11-19T19:28:19;11.50;91.20
19180;DHT22;9722;48.754;8.868;2023-11-19T19:31:40;11.50;91.30
19180;DHT22;9722;48.754;8.868;2023-11-19T19:35:00;11.60;91.50
19180;DHT22;9722;48.754;8.868;2023-11-19T19:38:21;11.70;91.50
19180;DHT22;9722;48.754;8.868;2023-11-19T19:41:41;11.80;91.60
19180;DHT22;9722;48.754;8.868;2023-11-19T19:45:02;11.80;91.90
19180;DHT22;9722;48.754;8.868;2023-11-19T19:48:23;11.80;92.50
19180;DHT22;9722;48.754;8.868;2023-11-19T19:51:43;11.80;93.10
19180;DHT22;9722;48.754;8.868;2023-11-19T19:55:08;11.80;93.80
19180;DHT22;9722;48.754;8.868;2023-11-19T19:58:29;11.80;94.40
19180;DHT22;9722;48.754;8.868;2023-11-19T20:01:50;11.70;94.90
19180;DHT22;9722;48.754;8.868;2023-11-19T20:05:11;11.70;95.40
19180;DHT22;9722;48.754;8.868;2023-11-19T20:08:32;11.70;96.00
19180;DHT22;9722;48.754;8.868;2023-11-19T20:11:52;11.70;96.60
19180;DHT22;9722;48.754;8.868;2023-11-19T20:15:13;11.60;96.80
19180;DHT22;9722;48.754;8.868;2023-11-19T20:18:38;11.60;97.20
19180;DHT22;9722;48.754;8.868;2023-11-19T20:21:58;11.50;97.70
19180;DHT22;9722;48.754;8.868;2023-11-19T20:25:19;11.50;98.00
19180;DHT22;9722;48.754;8.868;2023-11-19T20:28:39;11.50;98.30
19180;DHT22;9722;48.754;8.868;2023-11-19T20:31:59;11.50;98.50
19180;DHT22;9722;48.754;8.868;2023-11-19T20:35:20;11.50;98.70
19180;DHT22;9722;48.754;8.868;2023-11-19T20:38:41;11.50;98.90
19180;DHT22;9722;48.754;8.868;2023-11-19T20:42:02;11.50;99.00
19180;DHT22;9722;48.754;8.868;2023-11-19T20:45:24;11.50;99.10
19180;DHT22;9722;48.754;8.868;2023-11-19T20:48:47;11.40;99.10
19180;DHT22;9722;48.754;8.868;2023-11-19T20:52:07;11.30;99.10
19180;DHT22;9722;48.754;8.868;2023-11-19T20:55:28;11.30;99.20
19180;DHT22;9722;48.754;8.868;2023-11-19T20:58:49;11.20;99.20
19180;DHT22;9722;48.754;8.868;2023-11-19T21:02:09;11.20;99.20
19180;DHT22;9722;48.754;8.868;2023-11-19T21:05:30;11.10;99.10
19180;DHT22;9722;48.754;8.868;2023-11-19T21:08:50;11.10;99.10
19180;DHT22;9722;48.754;8.868;2023-11-19T21:12:11;11.10;99.10
19180;DHT22;9722;48.754;8.868;2023-11-19T21:15:31;11.00;99.00
19180;DHT22;9722;48.754;8.868;2023-11-19T21:18:52;11.00;99.00
19180;DHT22;9722;48.754;8.868;2023-11-19T21:22:12;10.90;98.90
19180;DHT22;9722;48.754;8.868;2023-11-19T21:25:33;10.90;98.80
19180;DHT22;9722;48.754;8.868;2023-11-19T21:28:54;10.90;98.70
19180;DHT22;9722;48.754;8.868;2023-11-19T21:32:14;10.80;98.60
19180;DHT22;9722;48.754;8.868;2023-11-19T21:35:35;10.90;98.50
19180;DHT22;9722;48.754;8.868;2023-11-19T21:38:57;10.90;98.30
19180;DHT22;9722;48.754;8.868;2023-11-19T21:42:18;10.90;98.10
19180;DHT22;9722;48.754;8.868;2023-11-19T21:45:38;10.80;97.90
19180;DHT22;9722;48.754;8.868;2023-11-19T21:49:00;10.70;97.90